Time;durP1;ratioP1;P1;durP2;ratioP2;P2;SDS_P1;SDS_P2;PMS_P1;PMS_P2;Temp;Humidity;BMP_temperature;BMP_pressure;BME280_temperature;BME280_humidity;BME280_pressure;Samples;Min_cycle;Max_cycle;Signal;HPM_P1;HPM_P2
2021/03/18 00:00:51;;;;;;;3.26;1.74;;;;;;;2.59;70.56;100218.56;2011002;78;22413;-70
2021/03/18 00:03:53;;;;;;;3.29;2.15;;;;;;;2.59;71.10;100226.25;2011694;80;20351;-70
2021/03/18 00:06:55;;;;;;;3.15;2.14;;;;;;;2.57;71.53;100232.13;2015244;80;20313;-70
2021/03/18 00:09:56;;;;;;;2.96;1.66;;;;;;;2.54;72.03;100235.44;2011687;80;20318;-70
2021/03/18 00:12:59;;;;;;;4.03;1.79;;;;;;;2.50;72.41;100238.66;2012037;80;20379;-69
2021/03/18 00:16:01;;;;;;;3.13;1.70;;;;;;;2.49;72.25;100231.78;2010703;77;20343;-70
2021/03/18 00:19:03;;;;;;;4.41;1.92;;;;;;;2.49;72.20;100231.78;2011754;80;20429;-70
2021/03/18 00:22:05;;;;;;;3.17;1.51;;;;;;;2.50;72.30;100232.66;2011830;80;20330;-69
2021/03/18 00:25:10;;;;;;;2.45;1.51;;;;;;;2.47;71.64;100233.41;2011787;80;20338;-69
2021/03/18 00:28:11;;;;;;;4.00;1.36;;;;;;;2.47;71.48;100214.59;2012379;80;20349;-69
2021/03/18 00:31:13;;;;;;;5.78;1.89;;;;;;;2.48;71.85;100213.78;2005869;78;22255;-69
2021/03/18 00:34:15;;;;;;;6.18;2.81;;;;;;;2.36;72.54;100202.25;2052233;70;20350;-71
2021/03/18 00:37:17;;;;;;;6.99;2.69;;;;;;;2.36;72.60;100193.69;2016643;80;20359;-71
2021/03/18 00:40:23;;;;;;;4.82;2.45;;;;;;;2.36;72.35;100184.31;2016851;80;20343;-71
2021/03/18 00:43:25;;;;;;;6.65;2.86;;;;;;;2.35;72.06;100171.44;2016403;80;21639;-71
2021/03/18 00:46:26;;;;;;;6.28;3.03;;;;;;;2.33;71.73;100166.22;2015990;78;20346;-71
2021/03/18 00:49:28;;;;;;;3.26;2.35;;;;;;;2.29;71.71;100160.91;2016992;80;21225;-71
2021/03/18 00:52:30;;;;;;;2.85;2.20;;;;;;;2.29;71.63;100155.78;2017188;80;20366;-71
2021/03/18 00:55:32;;;;;;;6.14;2.40;;;;;;;2.30;71.94;100154.97;2016371;80;20374;-71
2021/03/18 00:58:35;;;;;;;3.10;2.08;;;;;;;2.28;73.25;100149.78;2016628;80;20293;-71
2021/03/18 01:01:36;;;;;;;3.44;1.71;;;;;;;2.26;73.94;100153.09;2015883;77;20585;-71
2021/03/18 01:04:38;;;;;;;4.05;1.58;;;;;;;2.26;73.90;100153.09;2016617;80;20329;-71
2021/03/18 01:07:42;;;;;;;2.78;1.52;;;;;;;2.28;74.21;100154.91;2016829;80;20657;-71
2021/03/18 01:10:50;;;;;;;2.80;1.73;;;;;;;2.23;74.38;100153.00;2017252;80;20802;-71
2021/03/18 01:13:55;;;;;;;3.95;1.54;;;;;;;2.19;74.68;100148.56;2016578;80;20849;-71
2021/03/18 01:16:58;;;;;;;4.22;1.85;;;;;;;2.20;75.22;100156.31;2016507;78;20321;-69
2021/03/18 01:20:01;;;;;;;3.79;1.61;;;;;;;2.18;76.12;100165.63;2016872;80;20798;-69
2021/03/18 01:23:02;;;;;;;4.90;1.58;;;;;;;2.18;76.69;100164.75;2016845;80;20334;-69
2021/03/18 01:26:05;;;;;;;2.69;1.50;;;;;;;2.21;76.97;100170.84;2015956;80;20356;-69
2021/03/18 01:29:08;;;;;;;3.50;1.63;;;;;;;2.22;77.02;100169.19;2016726;80;20342;-69
2021/03/18 01:32:09;;;;;;;3.34;1.98;;;;;;;2.23;77.05;100179.47;2015810;77;20344;-69
2021/03/18 01:35:20;;;;;;;3.29;2.46;;;;;;;2.24;77.10;100170.97;2016975;80;20923;-69
2021/03/18 01:38:21;;;;;;;3.08;1.61;;;;;;;2.20;76.97;100171.69;2016813;80;20386;-69
2021/03/18 01:41:25;;;;;;;3.10;1.39;;;;;;;2.23;76.81;100168.34;2016047;80;20348;-69
2021/03/18 01:44:27;;;;;;;4.57;1.63;;;;;;;2.20;76.58;100169.13;2016725;80;20349;-69
2021/03/18 01:47:31;;;;;;;4.03;1.40;;;;;;;2.20;76.83;100170.81;2016313;78;20384;-70
2021/03/18 01:50:37;;;;;;;3.05;1.38;;;;;;;2.18;77.19;100168.19;2016586;80;20341;-69
2021/03/18 01:53:39;;;;;;;2.45;1.41;;;;;;;2.13;77.04;100167.09;2016338;80;20347;-70
2021/03/18 01:56:40;;;;;;;3.39;1.38;;;;;;;2.11;76.95;100167.03;2016747;80;20822;-69
2021/03/18 01:59:42;;;;;;;1.88;1.41;;;;;;;2.12;76.80;100167.91;2016130;80;20904;-69
2021/03/18 02:02:44;;;;;;;1.88;1.23;;;;;;;2.11;76.58;100171.28;2015394;78;21372;-70
2021/03/18 02:05:46;;;;;;;3.30;1.51;;;;;;;2.11;76.62;100171.28;2016378;80;20346;-70
2021/03/18 02:08:48;;;;;;;3.03;1.30;;;;;;;2.12;76.73;100173.03;2016449;80;21333;-69
2021/03/18 02:11:50;;;;;;;2.36;1.42;;;;;;;2.13;76.73;100173.09;2017180;80;20993;-69
2021/03/18 02:14:52;;;;;;;1.26;1.05;;;;;;;2.12;76.87;100167.91;2016204;80;20374;-69
2021/03/18 02:18:13;;;;;;;4.21;1.77;;;;;;;2.08;77.09;100166.03;2015700;77;28591;-69
2021/03/18 02:21:36;;;;;;;2.24;1.34;;;;;;;2.03;77.01;100172.66;2016964;80;20384;-70
2021/03/18 02:25:00;;;;;;;2.69;1.25;;;;;;;1.98;77.12;100179.28;2015593;80;20337;-70
2021/03/18 02:28:43;;;;;;;3.46;1.41;;;;;;;1.90;77.05;100175.50;2016182;80;20737;-70
2021/03/18 02:32:18;;;;;;;4.68;1.45;;;;;;;1.88;76.96;100179.69;2015923;77;21952;-71
2021/03/18 02:35:29;;;;;;;2.53;1.67;;;;;;;1.81;77.10;100176.88;2016418;80;20959;-71
2021/03/18 02:38:35;;;;;;;1.80;1.21;;;;;;;1.77;77.04;100180.09;2019955;80;20362;-72
2021/03/18 02:41:42;;;;;;;3.04;1.74;;;;;;;1.72;76.93;100180.72;2016613;80;20321;-71
2021/03/18 02:44:47;;;;;;;4.40;1.94;;;;;;;1.65;77.02;100184.69;2016679;80;20333;-72
2021/03/18 02:47:52;;;;;;;2.13;1.20;;;;;;;1.62;77.08;100193.94;2015428;78;20402;-69
2021/03/18 02:50:56;;;;;;;3.04;1.21;;;;;;;1.58;77.16;100182.66;2015790;80;20330;-69
2021/03/18 02:54:03;;;;;;;1.81;1.71;;;;;;;1.52;77.31;100177.28;2015806;80;20332;-70
2021/03/18 02:57:08;;;;;;;2.22;1.67;;;;;;;1.49;77.59;100178.03;2016145;80;20942;-69
2021/03/18 03:00:11;;;;;;;2.45;1.88;;;;;;;1.48;77.79;100170.28;2015291;80;20330;-69
2021/03/18 03:03:16;;;;;;;2.30;1.77;;;;;;;1.43;77.74;100164.94;2017952;80;20378;-69
2021/03/18 03:06:19;;;;;;;6.56;2.11;;;;;;;1.40;77.71;100158.81;2018812;80;20364;-69
2021/03/18 03:09:21;;;;;;;2.99;1.63;;;;;;;1.38;77.64;100166.44;2018747;80;20321;-70
2021/03/18 03:12:27;;;;;;;3.31;1.89;;;;;;;1.35;77.76;100170.53;2018611;80;20385;-70
2021/03/18 03:15:31;;;;;;;5.00;2.13;;;;;;;1.29;77.79;100168.59;2017542;77;22048;-70
2021/03/18 03:18:33;;;;;;;3.76;1.75;;;;;;;1.25;77.81;100176.03;2018499;80;20317;-69
2021/03/18 03:21:36;;;;;;;3.51;1.74;;;;;;;1.16;78.15;100174.81;2018221;80;20371;-69
2021/03/18 03:24:39;;;;;;;2.21;1.45;;;;;;;1.11;78.32;100175.44;2018408;80;20337;-70
2021/03/18 03:27:46;;;;;;;3.51;1.88;;;;;;;1.06;78.71;100174.31;2019174;80;20366;-70
2021/03/18 03:30:48;;;;;;;1.70;1.60;;;;;;;0.97;78.75;100174.78;2017358;78;23082;-69
2021/03/18 03:33:50;;;;;;;2.85;1.71;;;;;;;0.91;78.62;100166.84;2018117;80;20754;-69
2021/03/18 03:36:52;;;;;;;3.06;2.58;;;;;;;0.86;78.48;100171.72;2018682;80;20335;-69
2021/03/18 03:39:54;;;;;;;4.38;2.01;;;;;;;0.80;78.35;100168.03;2018231;80;20326;-69
2021/03/18 03:42:55;;;;;;;3.25;2.30;;;;;;;0.74;78.23;100167.75;2018332;80;20340;-70
2021/03/18 03:45:57;;;;;;;2.39;2.16;;;;;;;0.69;78.25;100170.06;2017430;77;20366;-69
2021/03/18 03:48:59;;;;;;;4.38;2.22;;;;;;;0.60;78.47;100162.84;2018235;80;20331;-69
2021/03/18 03:52:11;;;;;;;5.36;2.40;;;;;;;0.55;78.40;100163.44;2018183;80;20701;-69
2021/03/18 03:55:27;;;;;;;4.41;1.83;;;;;;;0.49;78.63;100161.44;2018423;80;21167;-69
2021/03/18 03:58:38;;;;;;;3.11;2.25;;;;;;;0.39;78.68;100151.59;2019113;80;20943;-70
2021/03/18 04:01:43;;;;;;;1.73;1.55;;;;;;;0.34;78.91;100147.94;2017104;78;44952;-70
2021/03/18 04:04:58;;;;;;;2.32;1.66;;;;;;;0.23;79.20;100155.09;2017274;80;20915;-69
2021/03/18 04:08:06;;;;;;;6.21;2.42;;;;;;;0.12;78.95;100148.56;2017212;80;20309;-69
2021/03/18 04:11:09;;;;;;;4.46;2.34;;;;;;;0.07;78.95;100149.16;2017083;80;20722;-69
2021/03/18 04:14:13;;;;;;;3.01;2.04;;;;;;;0.02;78.67;100156.59;2016549;80;20333;-69
2021/03/18 04:17:16;;;;;;;6.80;2.39;;;;;;;-0.02;78.86;100153.00;2016644;77;22581;-70
2021/03/18 04:20:21;;;;;;;3.41;2.09;;;;;;;-0.05;78.94;100151.97;2017419;80;20241;-69
2021/03/18 04:23:26;;;;;;;5.47;2.51;;;;;;;-0.10;79.21;100143.22;2017002;80;20268;-70
2021/03/18 04:26:34;;;;;;;3.68;2.22;;;;;;;-0.17;79.19;100142.03;2016829;80;20312;-69
2021/03/18 04:29:38;;;;;;;2.47;1.96;;;;;;;-0.24;79.28;100137.41;2017192;80;20171;-69
2021/03/18 04:32:42;;;;;;;2.46;2.14;;;;;;;-0.30;79.18;100149.88;2016243;78;22403;-69
2021/03/18 04:35:44;;;;;;;2.71;2.02;;;;;;;-0.35;79.42;100146.22;2016866;80;20753;-69
2021/03/18 04:38:46;;;;;;;3.63;2.98;;;;;;;-0.40;79.47;100145.97;2017018;80;20204;-69
2021/03/18 04:41:48;;;;;;;4.97;2.33;;;;;;;-0.42;79.67;100145.00;2016557;80;20185;-69
2021/03/18 04:44:50;;;;;;;3.65;2.49;;;;;;;-0.43;80.19;100147.47;2017064;80;20198;-69
2021/03/18 04:47:52;;;;;;;3.67;2.44;;;;;;;-0.43;80.69;100142.38;2015973;78;21334;-69
2021/03/18 04:50:54;;;;;;;4.24;2.70;;;;;;;-0.46;81.10;100147.34;2017468;80;20284;-69
2021/03/18 04:53:57;;;;;;;5.29;2.69;;;;;;;-0.46;81.16;100144.78;2017469;80;20628;-76
2021/03/18 04:57:01;;;;;;;3.30;2.80;;;;;;;-0.50;80.64;100145.44;2017016;80;20321;-76
2021/03/18 05:00:05;;;;;;;4.43;2.89;;;;;;;-0.52;80.76;100135.16;2013794;80;20152;-76
2021/03/18 05:03:08;;;;;;;2.59;2.14;;;;;;;-0.56;80.80;100148.53;2016650;77;20188;-76
2021/03/18 05:06:12;;;;;;;3.42;2.51;;;;;;;-0.61;81.00;100142.31;2017178;80;20293;-76
2021/03/18 05:09:14;;;;;;;2.92;2.62;;;;;;;-0.68;81.19;100133.47;2017156;80;20194;-76
2021/03/18 05:12:17;;;;;;;3.91;2.47;;;;;;;-0.70;81.26;100149.50;2016490;80;20199;-76
2021/03/18 05:15:19;;;;;;;3.22;2.21;;;;;;;-0.72;81.33;100149.44;2015427;78;20229;-76
2021/03/18 05:18:22;;;;;;;4.22;2.67;;;;;;;-0.75;81.62;100149.25;2017014;80;21026;-78
2021/03/18 05:21:24;;;;;;;3.30;2.34;;;;;;;-0.78;81.88;100149.09;2017804;80;20563;-79
2021/03/18 05:24:27;;;;;;;2.58;2.34;;;;;;;-0.79;81.94;100149.00;2017046;80;20598;-76
2021/03/18 05:27:29;;;;;;;3.58;2.52;;;;;;;-0.81;81.84;100158.25;2016105;80;20168;-76
2021/03/18 05:30:33;;;;;;;5.32;2.76;;;;;;;-0.83;81.74;100164.94;2016092;78;28082;-76
2021/03/18 05:33:35;;;;;;;3.71;2.71;;;;;;;-0.84;81.44;100165.75;2016268;80;20229;-77
2021/03/18 05:36:37;;;;;;;5.21;2.59;;;;;;;-0.85;81.43;100167.41;2017098;80;20646;-77
2021/03/18 05:39:39;;;;;;;4.18;2.68;;;;;;;-0.83;81.65;100159.84;2017108;80;20734;-79
2021/03/18 05:42:40;;;;;;;3.64;2.30;;;;;;;-0.80;81.84;100167.66;2017367;80;20801;-78
2021/03/18 05:45:42;;;;;;;2.93;2.39;;;;;;;-0.82;81.86;100154.81;2015472;78;20233;-78
2021/03/18 05:48:45;;;;;;;2.70;2.14;;;;;;;-0.80;82.02;100148.13;2016839;80;20187;-78
2021/03/18 05:51:49;;;;;;;6.24;2.63;;;;;;;-0.81;81.94;100155.69;2017182;80;20703;-78
2021/03/18 05:54:52;;;;;;;4.04;2.64;;;;;;;-0.82;81.71;100151.41;2017116;80;20208;-77
2021/03/18 05:57:54;;;;;;;5.67;2.70;;;;;;;-0.86;81.89;100152.91;2016943;80;20176;-78
2021/03/18 06:00:55;;;;;;;6.07;2.87;;;;;;;-0.87;81.96;100153.72;2015616;78;20598;-78
2021/03/18 06:03:57;;;;;;;4.86;2.38;;;;;;;-0.86;82.06;100149.50;2017175;80;20233;-79
2021/03/18 06:07:00;;;;;;;4.56;2.60;;;;;;;-0.85;82.08;100156.34;2016882;80;20199;-79
2021/03/18 06:10:13;;;;;;;5.30;2.73;;;;;;;-0.88;82.04;100156.19;2017183;80;20576;-79
2021/03/18 06:13:15;;;;;;;4.33;2.80;;;;;;;-0.87;81.91;100152.84;2016505;80;20621;-78
2021/03/18 06:16:17;;;;;;;3.17;2.34;;;;;;;-0.84;81.91;100150.44;2015999;78;22207;-79
2021/03/18 06:19:20;;;;;;;4.79;2.46;;;;;;;-0.84;82.26;100146.22;2017524;80;20279;-78
2021/03/18 06:22:40;;;;;;;3.28;2.78;;;;;;;-0.78;82.54;100149.09;2016335;80;20204;-78
2021/03/18 06:25:42;;;;;;;6.52;2.66;;;;;;;-0.71;82.68;100150.31;2016861;80;20207;-78
2021/03/18 06:28:44;;;;;;;3.69;2.40;;;;;;;-0.64;82.68;100143.03;2017063;80;20189;-78
2021/03/18 06:31:45;;;;;;;3.18;2.43;;;;;;;-0.53;82.68;100146.16;2015989;77;20345;-78
2021/03/18 06:34:54;;;;;;;2.64;2.28;;;;;;;-0.41;82.52;100148.44;2016267;80;20952;-77
2021/03/18 06:37:56;;;;;;;4.17;2.39;;;;;;;-0.29;82.79;100148.19;2014983;80;20196;-77
2021/03/18 06:40:59;;;;;;;4.46;2.34;;;;;;;-0.18;83.25;100144.50;2014546;80;20171;-75
2021/03/18 06:44:02;;;;;;;4.35;2.60;;;;;;;-0.06;83.56;100145.13;2014671;80;20258;-75
2021/03/18 06:47:10;;;;;;;4.20;2.32;;;;;;;0.13;83.67;100147.78;2014003;78;20439;-77
2021/03/18 06:50:15;;;;;;;5.76;2.61;;;;;;;0.44;83.31;100155.25;2014737;80;20221;-76
2021/03/18 06:53:28;;;;;;;5.82;2.78;;;;;;;0.85;82.21;100158.88;2014395;80;20329;-75
2021/03/18 06:56:33;;;;;;;2.51;2.25;;;;;;;1.18;81.22;100159.53;2015166;80;20418;-75
2021/03/18 06:59:40;;;;;;;3.76;2.59;;;;;;;1.36;80.49;100165.50;2014629;80;20355;-73
2021/03/18 07:02:42;;;;;;;3.84;2.54;;;;;;;1.57;80.34;100157.00;2014655;77;21117;-73
2021/03/18 07:05:43;;;;;;;4.10;2.49;;;;;;;1.83;80.17;100151.34;2015505;80;20305;-80
2021/03/18 07:08:45;;;;;;;3.84;2.71;;;;;;;2.15;79.33;100162.91;2015251;80;20341;-73
2021/03/18 07:11:49;;;;;;;2.85;2.35;;;;;;;2.55;78.46;100160.28;2015186;80;21182;-72
2021/03/18 07:14:56;;;;;;;4.60;2.40;;;;;;;2.92;77.51;100160.03;2014728;80;20346;-72
2021/03/18 07:18:00;;;;;;;3.49;2.42;;;;;;;3.16;75.89;100147.25;2016032;78;23242;-79
2021/03/18 07:21:12;;;;;;;4.91;3.01;;;;;;;3.46;74.92;100155.22;2014464;80;21199;-76
2021/03/18 07:24:33;;;;;;;3.99;3.14;;;;;;;3.70;73.74;100159.47;2014599;80;20320;-77
2021/03/18 07:27:41;;;;;;;4.84;3.01;;;;;;;3.86;73.11;100160.06;2015526;80;21002;-78
2021/03/18 07:30:42;;;;;;;3.55;2.99;;;;;;;4.30;72.54;100158.09;2014434;77;20321;-78
2021/03/18 07:33:46;;;;;;;6.45;3.64;;;;;;;4.68;70.33;100154.22;2013920;80;20357;-80
2021/03/18 07:36:48;;;;;;;4.72;3.10;;;;;;;4.83;70.56;100154.66;2014646;80;20783;-79
2021/03/18 07:39:49;;;;;;;6.89;2.41;;;;;;;4.70;69.90;100152.56;2016363;80;20342;-80
2021/03/18 07:42:52;;;;;;;4.20;3.34;;;;;;;4.57;70.05;100154.69;2016548;80;21015;-80
2021/03/18 07:45:55;;;;;;;5.30;3.45;;;;;;;4.43;70.81;100149.09;2015409;80;20362;-78
2021/03/18 07:49:04;;;;;;;5.26;3.55;;;;;;;4.40;71.31;100146.44;2016360;80;21164;-78
2021/03/18 07:52:07;;;;;;;11.10;3.97;;;;;;;4.32;70.88;100148.75;2017013;80;20352;-78
2021/03/18 07:55:11;;;;;;;8.00;3.89;;;;;;;4.25;71.05;100141.66;2016682;80;20225;-78
2021/03/18 07:58:12;;;;;;;7.44;4.63;;;;;;;4.21;70.86;100142.38;2017352;80;20343;-78
2021/03/18 08:01:29;;;;;;;6.31;4.43;;;;;;;4.23;70.89;100131.31;2016242;80;20340;-78
2021/03/18 08:04:40;;;;;;;5.76;4.38;;;;;;;4.29;70.76;100134.91;2016866;80;20329;-78
2021/03/18 08:08:00;;;;;;;9.86;4.24;;;;;;;4.32;70.29;100130.78;2017433;80;20370;-79
2021/03/18 08:11:09;;;;;;;9.13;5.63;;;;;;;4.38;70.46;100130.97;2017246;80;20207;-78
2021/03/18 08:14:12;;;;;;;;;;;;;;;4.61;70.13;100123.09;2016956;80;21001;-79
2021/03/18 08:17:34;;;;;;;7.22;3.66;;;;;;;4.82;68.80;100127.19;2016982;78;33618;-79
2021/03/18 08:20:42;;;;;;;5.88;4.36;;;;;;;5.12;67.69;100128.94;2017814;80;20309;-80
2021/03/18 08:23:47;;;;;;;6.32;3.56;;;;;;;5.50;65.93;100131.72;2016680;80;20347;-79
2021/03/18 08:26:56;;;;;;;5.70;3.83;;;;;;;5.98;65.03;100117.63;2018218;80;20313;-79
2021/03/18 08:30:00;;;;;;;7.80;3.63;;;;;;;6.37;63.31;100106.53;2017049;80;20305;-78
2021/03/18 08:33:34;;;;;;;6.75;4.46;;;;;;;6.82;61.45;100105.81;2009019;78;28302;-80
2021/03/18 08:36:51;;;;;;;7.19;3.03;;;;;;;7.08;60.41;100109.00;2011575;80;20399;-79
2021/03/18 08:39:53;;;;;;;6.26;2.63;;;;;;;7.28;58.21;100094.78;2011779;80;20310;-79
2021/03/18 08:43:04;;;;;;;4.44;1.80;;;;;;;7.39;54.08;100097.59;2010610;80;20324;-72
2021/03/18 08:46:25;;;;;;;5.22;2.14;;;;;;;7.66;54.18;100087.75;2011378;78;20357;-72
2021/03/18 08:49:44;;;;;;;3.94;1.61;;;;;;;7.83;50.71;100093.22;2015699;80;20338;-72
2021/03/18 08:52:45;;;;;;;2.96;1.90;;;;;;;7.86;52.47;100096.75;2014908;80;21206;-72
2021/03/18 08:55:47;;;;;;;4.51;1.84;;;;;;;7.89;52.15;100091.63;2014875;80;20337;-72
2021/03/18 08:58:53;;;;;;;3.96;2.28;;;;;;;8.12;53.52;100096.34;2015268;80;20309;-71
2021/03/18 09:02:10;;;;;;;6.50;1.89;;;;;;;8.15;49.91;100097.25;2014382;77;21286;-71
2021/03/18 09:05:18;;;;;;;3.78;1.74;;;;;;;8.31;51.32;100093.19;2014177;80;20512;-71
2021/03/18 09:08:24;;;;;;;3.51;1.60;;;;;;;8.55;52.40;100092.72;2015087;80;20358;-71
2021/03/18 09:11:26;;;;;;;2.90;1.34;;;;;;;8.80;49.39;100099.16;2015722;80;20172;-71
2021/03/18 09:14:29;;;;;;;5.16;1.61;;;;;;;8.83;46.16;100101.78;2015066;80;20370;-71
2021/03/18 09:17:30;;;;;;;3.53;1.58;;;;;;;8.97;46.42;100096.75;2014169;79;20387;-71
2021/03/18 09:20:58;;;;;;;4.09;1.94;;;;;;;9.28;48.43;100100.63;2015290;80;20341;-72
2021/03/18 09:24:05;;;;;;;2.28;1.49;;;;;;;9.51;47.29;100090.50;2015189;80;20297;-71
2021/03/18 09:27:10;;;;;;;3.33;1.15;;;;;;;9.47;46.52;100093.94;2015934;80;20197;-71
2021/03/18 09:30:16;;;;;;;2.35;1.08;;;;;;;9.15;46.80;100088.34;2014831;80;20200;-71
2021/03/18 09:33:28;;;;;;;3.55;1.45;;;;;;;8.79;48.16;100087.03;2016566;80;20237;-71
2021/03/18 09:36:32;;;;;;;3.55;1.85;;;;;;;8.50;49.67;100078.84;2015765;80;20289;-71
2021/03/18 09:39:35;;;;;;;2.94;1.35;;;;;;;8.77;48.90;100078.38;2018074;80;20288;-71
2021/03/18 09:42:38;;;;;;;3.91;1.49;;;;;;;9.18;48.25;100078.94;2015538;80;20211;-71
2021/03/18 09:46:08;;;;;;;3.55;2.10;;;;;;;9.72;47.92;100080.41;2014530;78;30087;-71
2021/03/18 09:49:09;;;;;;;;;;;;;;;10.18;46.29;100070.41;2015161;80;20190;-71
2021/03/18 09:52:17;;;;;;;2.08;1.30;;;;;;;10.33;44.41;100069.69;2015859;80;20093;-71
2021/03/18 09:55:19;;;;;;;3.42;1.60;;;;;;;10.35;42.13;100070.59;2015121;80;20180;-71
2021/03/18 09:58:20;;;;;;;4.96;1.52;;;;;;;10.35;43.50;100068.00;2015365;80;20300;-71
2021/03/18 10:01:24;;;;;;;3.69;1.30;;;;;;;10.27;41.75;100071.41;2014232;78;28040;-71
2021/03/18 10:04:26;;;;;;;4.45;1.52;;;;;;;9.91;42.31;100065.88;2015125;80;20306;-71
2021/03/18 10:07:31;;;;;;;2.65;1.24;;;;;;;9.54;42.66;100069.84;2015955;80;20196;-71
2021/03/18 10:10:34;;;;;;;2.94;1.33;;;;;;;9.16;43.93;100069.41;2015283;80;20540;-71
2021/03/18 10:13:36;;;;;;;4.75;1.50;;;;;;;8.70;43.41;100069.66;2014701;80;20660;-71
2021/03/18 10:16:38;;;;;;;2.49;1.24;;;;;;;8.31;44.82;100064.75;2014381;77;24830;-71
2021/03/18 10:19:49;;;;;;;4.07;1.27;;;;;;;7.95;45.00;100065.00;2014751;80;20205;-71
2021/03/18 10:23:00;;;;;;;1.86;0.80;;;;;;;7.72;46.86;100068.88;2014906;80;20333;-71
2021/03/18 10:26:02;;;;;;;1.39;0.80;;;;;;;7.48;43.73;100059.00;2015107;80;20317;-71
2021/03/18 10:29:05;;;;;;;3.09;1.31;;;;;;;7.53;46.39;100054.75;2015251;80;20429;-71
2021/03/18 10:32:12;;;;;;;2.17;0.80;;;;;;;8.07;45.89;100052.25;2014440;78;21228;-71
2021/03/18 10:35:17;;;;;;;2.06;0.82;;;;;;;8.92;45.93;100057.00;2014124;80;20404;-71
2021/03/18 10:38:29;;;;;;;4.20;1.08;;;;;;;9.53;43.42;100035.25;2014649;80;20830;-71
2021/03/18 10:41:31;;;;;;;0.99;0.88;;;;;;;9.85;41.22;100027.75;2014751;80;20321;-72
2021/03/18 10:44:36;;;;;;;4.85;1.55;;;;;;;10.53;42.57;100035.22;2015069;80;20223;-71
2021/03/18 10:47:42;;;;;;;3.44;1.70;;;;;;;10.48;39.82;100033.47;2014678;78;20680;-71
2021/03/18 10:50:46;;;;;;;4.61;2.05;;;;;;;10.42;37.98;100030.84;2014629;80;20193;-71
2021/03/18 10:53:49;;;;;;;1.79;1.30;;;;;;;10.10;41.00;100023.66;2014214;80;20172;-71
2021/03/18 10:56:52;;;;;;;3.05;1.63;;;;;;;9.69;40.74;100019.00;2015132;80;20197;-71
2021/03/18 11:00:07;;;;;;;2.16;1.21;;;;;;;9.17;42.54;100019.31;2015139;80;20191;-71
2021/03/18 11:03:17;;;;;;;3.56;1.41;;;;;;;8.70;42.57;100022.19;2009455;80;21014;-72
2021/03/18 11:06:21;;;;;;;2.99;1.29;;;;;;;8.33;44.92;100019.06;2009726;80;20228;-72
2021/03/18 11:09:23;;;;;;;2.24;1.30;;;;;;;8.13;45.19;100018.75;2010368;80;20258;-72
2021/03/18 11:12:25;;;;;;;2.15;1.20;;;;;;;8.10;44.45;100018.72;2011053;80;20172;-71
2021/03/18 11:15:42;;;;;;;5.07;1.20;;;;;;;8.65;45.54;100013.50;2010232;78;20314;-72
2021/03/18 11:18:45;;;;;;;3.31;1.26;;;;;;;9.16;43.99;100007.22;2016280;80;20279;-72
2021/03/18 11:21:58;;;;;;;4.50;1.05;;;;;;;9.62;41.90;99995.59;2015765;80;20315;-71
2021/03/18 11:25:01;;;;;;;4.90;1.30;;;;;;;10.23;41.48;100001.28;2016286;80;20171;-72
2021/03/18 11:28:02;;;;;;;2.04;1.16;;;;;;;10.58;39.01;99991.09;2016918;80;20275;-72
2021/03/18 11:31:14;;;;;;;3.21;1.25;;;;;;;10.79;39.25;99993.81;2016563;78;21803;-72
2021/03/18 11:34:25;;;;;;;2.49;1.13;;;;;;;11.13;37.43;99987.03;2016896;80;20184;-72
2021/03/18 11:37:27;;;;;;;2.97;1.06;;;;;;;11.14;36.41;99986.16;2017645;80;20191;-72
2021/03/18 11:40:29;;;;;;;2.60;1.13;;;;;;;11.12;37.58;99981.78;2017018;80;20201;-72
2021/03/18 11:43:32;;;;;;;4.56;1.29;;;;;;;11.26;37.79;99974.91;2014489;80;20227;-72
2021/03/18 11:46:34;;;;;;;4.38;1.17;;;;;;;11.41;38.82;99974.06;2013545;78;22824;-72
2021/03/18 11:49:37;;;;;;;2.20;0.99;;;;;;;11.51;37.65;99965.44;2017241;80;20228;-72
2021/03/18 11:52:39;;;;;;;2.28;0.94;;;;;;;11.92;38.02;99959.38;2015476;80;20310;-72
2021/03/18 11:55:41;;;;;;;2.49;1.00;;;;;;;12.26;37.77;99955.88;2016082;80;20227;-72
2021/03/18 11:58:43;;;;;;;2.34;1.09;;;;;;;12.63;36.35;99948.81;2017092;80;20428;-71
2021/03/18 12:01:46;;;;;;;2.11;1.74;;;;;;;12.68;33.76;99943.56;2015995;77;20412;-71
2021/03/18 12:04:48;;;;;;;2.28;1.00;;;;;;;12.71;31.08;99940.94;2015834;80;20225;-71
2021/03/18 12:07:51;;;;;;;1.36;1.00;;;;;;;12.47;31.32;99938.44;2015970;80;20196;-71
2021/03/18 12:10:53;;;;;;;3.25;1.20;;;;;;;12.53;33.63;99935.81;2016312;80;20223;-71
2021/03/18 12:13:55;;;;;;;2.50;0.80;;;;;;;12.80;33.25;99933.09;2016218;80;20195;-72
2021/03/18 12:16:56;;;;;;;3.19;0.90;;;;;;;12.32;31.67;99924.59;2016020;78;20702;-72
2021/03/18 12:19:58;;;;;;;2.91;0.93;;;;;;;11.76;33.89;99928.13;2016708;80;20179;-71
2021/03/18 12:23:00;;;;;;;1.67;0.85;;;;;;;11.39;36.54;99916.88;2016298;80;20209;-72
2021/03/18 12:26:02;;;;;;;2.63;1.00;;;;;;;11.24;35.30;99914.25;2016314;80;20645;-72
2021/03/18 12:29:03;;;;;;;2.38;0.89;;;;;;;10.78;35.34;99911.56;2016466;80;20211;-72
2021/03/18 12:32:05;;;;;;;2.70;0.88;;;;;;;10.30;37.25;99912.22;2015315;77;21747;-72
2021/03/18 12:35:09;;;;;;;2.08;1.14;;;;;;;9.94;37.47;99902.47;2016276;80;20200;-70
2021/03/18 12:38:10;;;;;;;2.61;0.80;;;;;;;9.62;37.88;99907.44;2016260;80;20928;-71
2021/03/18 12:41:12;;;;;;;4.03;0.90;;;;;;;9.37;39.59;99902.06;2016709;80;20164;-72
2021/03/18 12:44:14;;;;;;;2.16;0.71;;;;;;;9.17;41.17;99902.75;2015842;80;20168;-72
2021/03/18 12:47:15;;;;;;;3.31;0.70;;;;;;;9.03;40.54;99906.06;2015451;78;20179;-72
2021/03/18 12:50:20;;;;;;;3.16;0.75;;;;;;;8.84;39.24;99901.53;2016151;80;20331;-72
2021/03/18 12:53:22;;;;;;;1.58;0.65;;;;;;;9.03;40.60;99889.66;2015808;80;20710;-72
2021/03/18 12:56:25;;;;;;;2.91;0.59;;;;;;;9.62;39.89;99879.78;2016477;80;20233;-71
2021/03/18 12:59:27;;;;;;;2.39;0.70;;;;;;;10.20;38.95;99872.34;2011245;80;20326;-71
2021/03/18 13:02:28;;;;;;;2.59;0.50;;;;;;;10.54;35.47;99872.50;2014149;77;24194;-72
2021/03/18 13:05:31;;;;;;;0.98;0.69;;;;;;;10.96;35.81;99860.53;2013622;80;20187;-72
2021/03/18 13:08:34;;;;;;;2.44;0.59;;;;;;;11.28;31.71;99856.19;2014798;80;20179;-71
2021/03/18 13:11:37;;;;;;;1.34;0.69;;;;;;;11.49;33.62;99851.00;2015291;80;20179;-72
2021/03/18 13:14:39;;;;;;;1.04;0.60;;;;;;;11.65;31.64;99846.63;2015115;80;20168;-73
2021/03/18 13:17:41;;;;;;;1.19;0.75;;;;;;;11.78;32.71;99834.47;2015301;78;22071;-72
2021/03/18 13:20:44;;;;;;;1.05;0.60;;;;;;;11.73;32.91;99838.81;2015204;80;20192;-71
2021/03/18 13:23:47;;;;;;;2.28;0.60;;;;;;;11.48;33.24;99835.38;2015650;80;20168;-71
2021/03/18 13:26:51;;;;;;;2.24;0.70;;;;;;;11.34;35.02;99825.00;2013992;80;20216;-71
2021/03/18 13:29:52;;;;;;;3.49;0.57;;;;;;;11.03;35.22;99823.28;2015572;80;20659;-71
2021/03/18 13:32:54;;;;;;;1.51;0.64;;;;;;;10.82;34.92;99827.59;2014154;77;25892;-70
2021/03/18 13:36:09;;;;;;;2.26;0.70;;;;;;;10.41;33.86;99822.31;2014561;80;20231;-71
2021/03/18 13:39:11;;;;;;;1.45;0.80;;;;;;;10.24;36.06;99813.59;2015050;80;20179;-71
2021/03/18 13:42:13;;;;;;;1.58;0.71;;;;;;;10.00;35.97;99814.28;2015135;80;20176;-71
2021/03/18 13:45:14;;;;;;;0.70;0.59;;;;;;;9.80;37.61;99809.00;2013917;80;20217;-70
2021/03/18 13:48:16;;;;;;;0.85;0.60;;;;;;;9.66;37.40;99801.16;2014563;78;21838;-72
2021/03/18 13:51:18;;;;;;;1.26;0.54;;;;;;;9.51;36.78;99805.38;2014877;80;20188;-70
2021/03/18 13:54:24;;;;;;;1.10;0.59;;;;;;;9.56;37.34;99806.28;2014425;80;20180;-70
2021/03/18 13:57:27;;;;;;;1.27;0.63;;;;;;;9.55;37.28;99802.84;2015036;80;20209;-70
2021/03/18 14:00:29;;;;;;;3.03;0.74;;;;;;;9.63;37.52;99797.69;2013837;77;59331;-70
2021/03/18 14:03:32;;;;;;;2.31;0.69;;;;;;;9.60;36.34;99800.25;2014389;80;20363;-71
2021/03/18 14:06:35;;;;;;;0.96;0.61;;;;;;;9.49;37.22;99800.19;2014599;80;20710;-71
2021/03/18 14:09:36;;;;;;;1.13;0.81;;;;;;;9.41;37.00;99796.69;2015504;80;20183;-71
2021/03/18 14:12:39;;;;;;;1.01;0.80;;;;;;;9.38;38.42;99792.34;2014650;80;20767;-71
2021/03/18 14:15:43;;;;;;;2.50;0.88;;;;;;;9.33;39.92;99795.75;2013422;78;21433;-71
2021/03/18 14:18:45;;;;;;;2.20;1.00;;;;;;;9.27;40.32;99796.56;2014717;80;20225;-70
2021/03/18 14:21:47;;;;;;;2.50;0.98;;;;;;;9.18;38.69;99788.75;2014575;80;20576;-70
2021/03/18 14:24:51;;;;;;;2.35;1.06;;;;;;;9.07;39.17;99775.72;2014599;80;20195;-70
2021/03/18 14:27:53;;;;;;;1.52;0.80;;;;;;;9.04;39.51;99767.06;2014374;80;20176;-70
2021/03/18 14:31:04;;;;;;;;;;;;;;;9.22;39.64;99774.09;2014529;78;22000;-71